What Cheer, Iowa
Current Conditions -  °F | °C
As of 3:35 AM on Sunday 23 Nov 2014 (Local Time) from KOOA Reporting Station
Haze Haze  
Wind Chill: 51°   Ceiling: 1200
Heat Index: 51°   Visibility: 4mi
Dew Point: 50°   Wind: 10mph
Humidity: 95%   Direction: 180°S
Pressure: 29.64"   Gusts: NA
Location:  41.4°N, 92.35°W
Report Text: KOOA 230935Z AUTO 18009KT 4SM BR OVC012 11/10 A2964 RMK AO2 T01070100
Loading
Personal Weather Stations






























Interactive Weather Map New forecast layout! Learn more

10-Day Weather Forecast

Advertisements
Track Severe Weather on mobile